Time;durP1;ratioP1;P1;durP2;ratioP2;P2;SDS_P1;SDS_P2;PMS_P1;PMS_P2;Temp;Humidity;BMP_temperature;BMP_pressure;BME280_temperature;BME280_humidity;BME280_pressure;Samples;Min_cycle;Max_cycle;Signal;HPM_P1;HPM_P2
2023/12/29 00:00:00;;;;;;;;;;;;;;;25.96;38.88;94475.66;4957265;28;8704;-57
2023/12/29 00:02:32;;;;;;;;;;;;;;;25.96;38.67;94472.91;4970864;28;7384;-58
2023/12/29 00:05:00;;;;;;;;;;;;;;;25.95;38.62;94465.88;4953803;28;6942;-58
2023/12/29 00:07:27;;;;;;;;;;;;;;;25.95;38.23;94466.63;4957455;28;9312;-57
2023/12/29 00:09:59;;;;;;;;;;;;;;;25.96;38.54;94462.63;4971771;28;7618;-57
2023/12/29 00:12:27;;;;;;;;;;;;;;;25.96;38.52;94456.38;4957885;28;9113;-57
2023/12/29 00:15:28;;;;;;;;;;;;;;;25.95;38.75;94455.63;4961675;28;7249;-58
2023/12/29 00:18:05;;;;;;;;;;;;;;;25.94;38.87;94454.13;4870437;29;7308;-57
2023/12/29 00:20:40;;;;;;;;;;;;;;;25.94;38.43;94445.88;4895529;29;7213;-57
2023/12/29 00:23:12;;;;;;;;;;;;;;;25.93;38.26;94444.34;4873890;29;9364;-57
2023/12/29 00:26:24;;;;;;;;;;;;;;;25.94;38.71;94456.88;4880871;29;7005;-57
2023/12/29 00:28:53;;;;;;;;;;;;;;;25.94;38.08;94458.88;4789095;29;8936;-58
2023/12/29 00:31:20;;;;;;;;;;;;;;;25.93;38.54;94458.13;4803913;29;8987;-58
2023/12/29 00:34:23;;;;;;;;;;;;;;;25.95;38.42;94463.13;4804400;29;8791;-58
2023/12/29 00:37:06;;;;;;;;;;;;;;;25.95;38.74;94458.38;4809700;29;7696;-58
2023/12/29 00:39:41;;;;;;;;;;;;;;;25.93;38.89;94449.88;4806910;29;7375;-58
2023/12/29 00:42:17;;;;;;;;;;;;;;;25.95;38.14;94446.59;4807383;29;9080;-58
2023/12/29 00:44:54;;;;;;;;;;;;;;;25.91;38.63;94429.59;4807892;29;7696;-58
2023/12/29 00:47:23;;;;;;;;;;;;;;;25.94;38.27;94429.34;4792584;29;9172;-58
2023/12/29 00:49:50;;;;;;;;;;;;;;;25.91;38.61;94433.09;4806736;29;9090;-58
2023/12/29 00:52:19;;;;;;;;;;;;;;;25.92;38.57;94431.84;4805806;29;7533;-58
2023/12/29 00:54:46;;;;;;;;;;;;;;;25.90;38.74;94439.84;4878350;29;9164;-58
2023/12/29 00:57:13;;;;;;;;;;;;;;;25.94;38.53;94447.88;4878324;29;8778;-58
2023/12/29 00:59:40;;;;;;;;;;;;;;;25.94;38.66;94439.59;4879193;29;6970;-57
2023/12/29 01:02:16;;;;;;;;;;;;;;;25.94;38.59;94439.59;4879467;29;7412;-58
2023/12/29 01:04:44;;;;;;;;;;;;;;;25.93;38.06;94436.09;4878740;28;7738;-57
2023/12/29 01:07:10;;;;;;;;;;;;;;;25.95;38.11;94430.81;4957146;28;7560;-58
2023/12/29 01:09:48;;;;;;;;;;;;;;;25.92;38.35;94426.34;4955411;28;8807;-58
2023/12/29 01:12:21;;;;;;;;;;;;;;;25.91;38.63;94422.06;4960123;28;7270;-58
2023/12/29 01:15:21;;;;;;;;;;;;;;;25.93;38.14;94444.34;4954786;28;7481;-58
2023/12/29 01:17:55;;;;;;;;;;;;;;;25.93;38.24;94449.13;4898977;29;9126;-58
2023/12/29 01:20:32;;;;;;;;;;;;;;;25.91;37.98;94443.38;4897174;29;7373;-58
2023/12/29 01:23:07;;;;;;;;;;;;;;;25.94;37.91;94447.88;4903477;29;7560;-57
2023/12/29 01:25:44;;;;;;;;;;;;;;;25.89;38.10;94443.13;4887627;29;7634;-58
2023/12/29 01:28:39;;;;;;;;;;;;;;;25.93;38.56;94447.09;4881200;29;7301;-58
2023/12/29 01:31:22;;;;;;;;;;;;;;;25.93;38.26;94443.59;4823731;29;7303;-58
2023/12/29 01:33:50;;;;;;;;;;;;;;;25.92;38.28;94439.38;4840725;29;9096;-58
2023/12/29 01:36:35;;;;;;;;;;;;;;;25.90;38.51;94439.13;4842420;29;9050;-58
2023/12/29 01:39:22;;;;;;;;;;;;;;;25.93;38.57;94449.13;4830670;29;6981;-58
2023/12/29 01:42:00;;;;;;;;;;;;;;;25.92;38.65;94442.13;4824468;29;7251;-58
2023/12/29 01:44:35;;;;;;;;;;;;;;;25.93;38.64;94438.09;4834833;29;7073;-58
2023/12/29 01:47:17;;;;;;;;;;;;;;;25.91;38.54;94438.63;4834698;29;9069;-58
2023/12/29 01:50:03;;;;;;;;;;;;;;;25.92;38.75;94445.63;4841304;29;7228;-57
2023/12/29 01:52:30;;;;;;;;;;;;;;;25.92;38.57;94434.59;4841337;29;8752;-57
2023/12/29 01:54:56;;;;;;;;;;;;;;;25.90;38.66;94428.84;4899047;29;8619;-58
2023/12/29 01:57:22;;;;;;;;;;;;;;;25.90;37.55;94439.84;4882565;29;9147;-58
2023/12/29 01:59:48;;;;;;;;;;;;;;;25.93;38.59;94441.59;4894504;29;7131;-58
2023/12/29 02:02:15;;;;;;;;;;;;;;;25.93;38.06;94433.34;4888594;29;8204;-58
2023/12/29 02:04:41;;;;;;;;;;;;;;;25.93;38.13;94438.09;4907208;29;7245;-58
2023/12/29 02:07:07;;;;;;;;;;;;;;;25.92;38.66;94440.13;4893147;28;7405;-58
2023/12/29 02:09:34;;;;;;;;;;;;;;;25.92;38.64;94442.88;4953289;28;9528;-57
2023/12/29 02:12:02;;;;;;;;;;;;;;;25.92;38.09;94448.38;4957027;28;8685;-58
2023/12/29 02:14:29;;;;;;;;;;;;;;;25.92;38.53;94431.09;4959499;28;9122;-58
2023/12/29 02:17:10;;;;;;;;;;;;;;;25.92;38.41;94433.84;4973302;28;7120;-57
2023/12/29 02:19:39;;;;;;;;;;;;;;;25.93;38.01;94432.56;4972200;28;9095;-37
2023/12/29 02:22:07;;;;;;;;;;;;;;;25.92;38.21;94431.84;4971888;28;8170;-36
2023/12/29 02:24:38;;;;;;;;;;;;;;;25.91;38.31;94427.59;4949353;28;7655;-37
2023/12/29 02:27:34;;;;;;;;;;;;;;;25.92;38.77;94431.09;4956404;28;9280;-37
2023/12/29 02:30:19;;;;;;;;;;;;;;;25.92;37.95;94420.06;4969617;28;6990;-37
2023/12/29 02:32:47;;;;;;;;;;;;;;;25.89;38.20;94416.34;4953067;28;7081;-37
2023/12/29 02:35:27;;;;;;;;;;;;;;;25.92;38.18;94415.31;4954393;28;7344;-37
2023/12/29 02:37:56;;;;;;;;;;;;;;;25.93;38.52;94425.06;4951855;28;8048;-37
2023/12/29 02:40:25;;;;;;;;;;;;;;;25.93;38.11;94422.31;4971275;28;7500;-37
2023/12/29 02:42:52;;;;;;;;;;;;;;;25.92;38.48;94426.34;4956870;28;7270;-37
2023/12/29 02:45:49;;;;;;;;;;;;;;;25.94;37.97;94429.34;4955243;28;7252;-37
2023/12/29 02:48:14;;;;;;;;;;;;;;;25.93;38.12;94418.81;4891429;29;9106;-37
2023/12/29 02:50:42;;;;;;;;;;;;;;;25.94;38.04;94423.06;4895952;29;7532;-37
2023/12/29 02:53:08;;;;;;;;;;;;;;;25.93;38.03;94422.31;4882803;29;9609;-37
2023/12/29 02:55:34;;;;;;;;;;;;;;;25.93;38.10;94421.56;4878588;29;9381;-37
2023/12/29 02:58:10;;;;;;;;;;;;;;;25.93;38.30;94416.81;4894718;29;9724;-37
2023/12/29 03:00:36;;;;;;;;;;;;;;;25.92;38.60;94415.31;4880637;29;9404;-37
2023/12/29 03:03:04;;;;;;;;;;;;;;;25.91;38.21;94404.78;4896295;29;6970;-37
2023/12/29 03:05:38;;;;;;;;;;;;;;;25.91;38.04;94413.81;4896867;29;7058;-37
2023/12/29 03:08:18;;;;;;;;;;;;;;;25.89;38.39;94413.56;4877251;29;8739;-37
2023/12/29 03:10:44;;;;;;;;;;;;;;;25.89;38.60;94410.06;4883374;29;7241;-37
2023/12/29 03:13:19;;;;;;;;;;;;;;;25.89;38.50;94405.31;4873801;29;9059;-37
2023/12/29 03:15:56;;;;;;;;;;;;;;;25.91;38.03;94415.81;4881106;29;7556;-37
2023/12/29 03:18:26;;;;;;;;;;;;;;;25.91;38.51;94405.53;4892608;29;7226;-37
2023/12/29 03:20:56;;;;;;;;;;;;;;;25.91;37.74;94419.31;4891877;29;7317;-37
2023/12/29 03:23:43;;;;;;;;;;;;;;;25.89;37.94;94405.31;4895917;29;6881;-37
2023/12/29 03:26:11;;;;;;;;;;;;;;;25.85;38.55;94399.34;4955707;28;7762;-37
2023/12/29 03:28:38;;;;;;;;;;;;;;;25.86;37.85;94397.34;4967229;28;8772;-37
2023/12/29 03:31:05;;;;;;;;;;;;;;;25.85;38.54;94402.09;4970171;28;7230;-36
2023/12/29 03:33:32;;;;;;;;;;;;;;;25.82;38.03;94405.09;4952210;28;7013;-36
2023/12/29 03:35:59;;;;;;;;;;;;;;;25.82;38.07;94411.38;4957705;28;9153;-36
2023/12/29 03:38:28;;;;;;;;;;;;;;;25.83;37.95;94401.84;4958285;28;7021;-36
2023/12/29 03:40:54;;;;;;;;;;;;;;;25.87;37.61;94409.84;4973237;28;9458;-36
2023/12/29 03:43:31;;;;;;;;;;;;;;;25.83;38.27;94401.84;4957821;28;9392;-36
2023/12/29 03:46:25;;;;;;;;;;;;;;;25.85;38.00;94404.84;4975232;28;7281;-36
2023/12/29 03:48:56;;;;;;;;;;;;;;;25.85;37.88;94410.34;4950713;28;7100;-36
2023/12/29 03:51:32;;;;;;;;;;;;;;;25.83;38.34;94409.38;4972795;28;9000;-36
2023/12/29 03:53:59;;;;;;;;;;;;;;;25.83;38.37;94401.84;4974209;28;7257;-36
2023/12/29 03:56:35;;;;;;;;;;;;;;;25.83;38.30;94396.34;4949687;28;9053;-36
2023/12/29 03:59:01;;;;;;;;;;;;;;;25.86;37.71;94397.34;4957129;28;9094;-36
2023/12/29 04:01:37;;;;;;;;;;;;;;;25.85;37.92;94402.09;4962204;28;9186;-36
2023/12/29 04:04:07;;;;;;;;;;;;;;;25.83;37.50;94390.84;4957750;28;8772;-36
2023/12/29 04:06:37;;;;;;;;;;;;;;;25.82;38.58;94394.06;4965859;28;7055;-36
2023/12/29 04:09:09;;;;;;;;;;;;;;;25.83;38.35;94403.84;4953439;28;9068;-36
2023/12/29 04:11:35;;;;;;;;;;;;;;;25.85;38.49;94388.31;4966188;28;9227;-36
2023/12/29 04:14:03;;;;;;;;;;;;;;;25.83;38.25;94396.34;4941442;28;6988;-36
2023/12/29 04:16:29;;;;;;;;;;;;;;;25.83;38.01;94392.84;4944650;28;7249;-36
2023/12/29 04:18:56;;;;;;;;;;;;;;;25.85;37.53;94395.81;4959581;28;9086;-36
2023/12/29 04:21:27;;;;;;;;;;;;;;;25.87;37.96;94390.53;4959812;28;7342;-36
2023/12/29 04:23:53;;;;;;;;;;;;;;;25.87;38.00;94385.78;4960609;28;9329;-36
2023/12/29 04:26:19;;;;;;;;;;;;;;;25.86;37.77;94389.78;4976067;28;9962;-37
2023/12/29 04:28:46;;;;;;;;;;;;;;;25.86;37.37;94387.03;4957092;28;7432;-36
2023/12/29 04:31:32;;;;;;;;;;;;;;;25.84;37.83;94383.28;4971359;28;7453;-36
2023/12/29 04:34:07;;;;;;;;;;;;;;;25.87;37.87;94388.53;4969319;28;7322;-36
2023/12/29 04:36:43;;;;;;;;;;;;;;;25.85;38.02;94371.78;4960281;28;7130;-36
2023/12/29 04:39:19;;;;;;;;;;;;;;;25.83;37.64;94382.56;4970683;28;9125;-36
2023/12/29 04:41:46;;;;;;;;;;;;;;;25.84;38.08;94378.53;4966560;28;8029;-36
2023/12/29 04:44:23;;;;;;;;;;;;;;;25.85;38.15;94382.78;4960652;28;7887;-36
2023/12/29 04:47:22;;;;;;;;;;;;;;;25.85;37.53;94388.31;4961043;28;7404;-36
2023/12/29 04:49:51;;;;;;;;;;;;;;;25.85;38.22;94387.56;4955611;28;7648;-36
2023/12/29 04:52:34;;;;;;;;;;;;;;;25.86;37.67;94398.06;4976861;28;9190;-36
2023/12/29 04:55:05;;;;;;;;;;;;;;;25.84;37.84;94403.34;4976727;28;7419;-36
2023/12/29 04:57:32;;;;;;;;;;;;;;;25.85;38.17;94404.84;4968561;28;8649;-36
2023/12/29 05:00:00;;;;;;;;;;;;;;;25.85;37.73;94410.34;4960771;28;7486;-36
2023/12/29 05:02:30;;;;;;;;;;;;;;;25.84;38.10;94400.56;4967809;28;7290;-36
2023/12/29 05:05:08;;;;;;;;;;;;;;;25.84;37.61;94402.56;4968893;28;7331;-36
2023/12/29 05:07:44;;;;;;;;;;;;;;;25.83;38.04;94398.34;4967866;28;8896;-36
2023/12/29 05:10:11;;;;;;;;;;;;;;;25.83;37.64;94401.09;4977311;28;9448;-36
2023/12/29 05:13:06;;;;;;;;;;;;;;;25.83;37.48;94392.84;4977788;28;9102;-36
2023/12/29 05:15:51;;;;;;;;;;;;;;;25.84;37.41;94400.56;4876461;29;9074;-36
2023/12/29 05:18:41;;;;;;;;;;;;;;;25.83;38.19;94410.13;4881491;29;7347;-36
2023/12/29 05:21:20;;;;;;;;;;;;;;;25.82;37.45;94403.09;4881531;29;7130;-36
2023/12/29 05:23:47;;;;;;;;;;;;;;;25.81;37.96;94409.88;4898834;29;7222;-36
2023/12/29 05:26:31;;;;;;;;;;;;;;;25.81;37.37;94415.41;4898666;29;7201;-35
2023/12/29 05:28:58;;;;;;;;;;;;;;;25.81;37.95;94412.63;4882772;29;7195;-36
2023/12/29 05:31:38;;;;;;;;;;;;;;;25.82;38.19;94407.84;4883507;29;7288;-36
2023/12/29 05:34:35;;;;;;;;;;;;;;;25.81;37.57;94409.88;4880268;29;7427;-36
2023/12/29 05:37:24;;;;;;;;;;;;;;;25.80;38.24;94400.09;4894662;29;7304;-36
2023/12/29 05:39:59;;;;;;;;;;;;;;;25.78;37.79;94402.63;4895930;29;9269;-36
2023/12/29 05:42:26;;;;;;;;;;;;;;;25.78;38.19;94399.88;4886591;29;7267;-36
2023/12/29 05:45:21;;;;;;;;;;;;;;;25.79;38.00;94397.88;4892495;29;7034;-36
2023/12/29 05:48:20;;;;;;;;;;;;;;;25.80;38.19;94397.34;4831463;29;9220;-36
2023/12/29 05:51:22;;;;;;;;;;;;;;;25.81;38.13;94389.84;4823982;29;7370;-39
2023/12/29 05:54:18;;;;;;;;;;;;;;;25.82;37.28;94391.31;4805641;29;8860;-39
2023/12/29 05:56:54;;;;;;;;;;;;;;;25.78;37.49;94394.38;4805381;29;7183;-40
2023/12/29 05:59:22;;;;;;;;;;;;;;;25.77;37.67;94403.16;4805037;29;7079;-39
2023/12/29 06:02:05;;;;;;;;;;;;;;;25.79;37.67;94401.38;4806061;29;7215;-38
2023/12/29 06:04:39;;;;;;;;;;;;;;;25.75;37.82;94409.16;4789970;29;7294;-38
2023/12/29 06:07:06;;;;;;;;;;;;;;;25.78;37.34;94399.13;4787262;29;7352;-39
2023/12/29 06:10:06;;;;;;;;;;;;;;;25.79;37.41;94412.41;4801520;29;8729;-38
2023/12/29 06:13:03;;;;;;;;;;;;;;;25.78;37.51;94413.66;4706750;30;7231;-38
2023/12/29 06:15:31;;;;;;;;;;;;;;;25.75;38.24;94413.94;4680266;30;7535;-39
2023/12/29 06:17:58;;;;;;;;;;;;;;;25.76;37.92;94413.41;4665697;30;8365;-39
2023/12/29 06:20:26;;;;;;;;;;;;;;;25.78;37.19;94415.66;4649893;30;8205;-40
2023/12/29 06:22:54;;;;;;;;;;;;;;;25.81;38.20;94411.88;4665847;30;7406;-39
2023/12/29 06:25:20;;;;;;;;;;;;;;;25.78;38.06;94410.13;4668440;30;8666;-39
2023/12/29 06:27:46;;;;;;;;;;;;;;;25.79;37.43;94408.91;4697492;30;9340;-39
2023/12/29 06:30:16;;;;;;;;;;;;;;;25.79;38.12;94419.91;4714500;30;9290;-39
2023/12/29 06:32:42;;;;;;;;;;;;;;;25.78;38.19;94421.16;4724273;30;9066;-39
2023/12/29 06:35:11;;;;;;;;;;;;;;;25.77;37.60;94414.94;4766530;30;9108;-39
2023/12/29 06:37:38;;;;;;;;;;;;;;;25.74;37.97;94410.44;4766323;30;7141;-38
2023/12/29 06:40:08;;;;;;;;;;;;;;;25.76;38.35;94416.16;4750075;30;9158;-36
2023/12/29 06:42:35;;;;;;;;;;;;;;;25.77;38.54;94414.16;4766843;30;9083;-40
2023/12/29 06:45:10;;;;;;;;;;;;;;;25.78;38.38;94416.41;4767328;30;8759;-39
2023/12/29 06:47:38;;;;;;;;;;;;;;;25.81;38.18;94414.63;4788240;29;9090;-39
2023/12/29 06:50:12;;;;;;;;;;;;;;;25.80;38.42;94424.91;4862260;29;7055;-40
2023/12/29 06:52:42;;;;;;;;;;;;;;;25.82;38.15;94416.88;4930522;28;7566;-40
2023/12/29 06:55:08;;;;;;;;;;;;;;;25.81;37.68;94426.41;4957573;28;9106;-39
2023/12/29 06:57:38;;;;;;;;;;;;;;;25.81;38.43;94429.16;4950536;28;6860;-39
2023/12/29 07:00:06;;;;;;;;;;;;;;;25.78;37.61;94427.44;4943732;28;7040;-37
2023/12/29 07:02:32;;;;;;;;;;;;;;;25.76;37.89;94427.19;4949441;28;9033;-37
2023/12/29 07:04:59;;;;;;;;;;;;;;;25.73;38.44;94430.97;4954715;28;8434;-37
2023/12/29 07:07:25;;;;;;;;;;;;;;;25.70;38.47;94429.25;4954337;28;8767;-36
2023/12/29 07:09:54;;;;;;;;;;;;;;;25.73;38.39;94430.22;4950510;28;7007;-37
2023/12/29 07:12:20;;;;;;;;;;;;;;;25.76;38.47;94435.47;4960175;28;7329;-37
2023/12/29 07:14:46;;;;;;;;;;;;;;;25.74;38.70;94429.72;4963178;28;7221;-37
2023/12/29 07:17:15;;;;;;;;;;;;;;;25.76;38.10;94435.47;4955810;28;8757;-37
2023/12/29 07:19:47;;;;;;;;;;;;;;;25.78;38.91;94432.19;4953203;28;7119;-36
2023/12/29 07:22:13;;;;;;;;;;;;;;;25.77;37.74;94420.44;4950584;28;9473;-36
2023/12/29 07:24:48;;;;;;;;;;;;;;;25.78;38.57;94437.69;4954111;28;8372;-36
2023/12/29 07:27:45;;;;;;;;;;;;;;;25.78;38.19;94438.44;4956777;28;7630;-36
2023/12/29 07:30:41;;;;;;;;;;;;;;;25.79;38.68;94439.97;4896201;29;9148;-36
2023/12/29 07:33:21;;;;;;;;;;;;;;;25.82;38.79;94433.41;4895333;29;7504;-36
2023/12/29 07:36:18;;;;;;;;;;;;;;;25.79;38.13;94433.69;4890827;29;8530;-36
2023/12/29 07:38:56;;;;;;;;;;;;;;;25.77;39.01;94436.97;4879623;29;7002;-36
2023/12/29 07:41:34;;;;;;;;;;;;;;;25.79;38.73;94439.97;4880831;29;6904;-36
2023/12/29 07:44:00;;;;;;;;;;;;;;;25.81;38.09;94436.69;4885232;29;9222;-36
2023/12/29 07:46:27;;;;;;;;;;;;;;;25.80;38.17;94430.41;4877648;29;7739;-36
2023/12/29 07:49:38;;;;;;;;;;;;;;;25.81;38.05;94442.94;4888617;29;6987;-36
2023/12/29 07:52:14;;;;;;;;;;;;;;;25.81;38.62;94436.69;4827992;29;9098;-36
2023/12/29 07:55:04;;;;;;;;;;;;;;;25.83;37.76;94447.94;4804168;29;9176;-36
2023/12/29 07:57:49;;;;;;;;;;;;;;;25.80;38.23;94444.19;4821187;29;7268;-36
2023/12/29 08:00:28;;;;;;;;;;;;;;;25.82;38.15;94443.66;4820833;29;7253;-36
2023/12/29 08:03:24;;;;;;;;;;;;;;;25.81;37.64;94447.69;4819266;29;7268;-36
2023/12/29 08:05:59;;;;;;;;;;;;;;;25.80;38.32;94449.69;4769804;29;9563;-36
2023/12/29 08:08:25;;;;;;;;;;;;;;;25.82;38.63;94444.44;4831684;29;9424;-36
2023/12/29 08:11:00;;;;;;;;;;;;;;;25.79;38.69;94445.47;4825549;29;7286;-35
2023/12/29 08:13:43;;;;;;;;;;;;;;;25.78;38.90;94441.19;4824370;29;6992;-36
2023/12/29 08:16:09;;;;;;;;;;;;;;;25.77;38.73;94442.47;4820635;29;7253;-36
2023/12/29 08:18:59;;;;;;;;;;;;;;;25.79;38.68;94442.72;4814056;29;8732;-36
2023/12/29 08:21:34;;;;;;;;;;;;;;;25.77;37.85;94442.47;4822458;29;7258;-36
2023/12/29 08:24:19;;;;;;;;;;;;;;;25.78;38.73;94448.72;4807287;29;9452;-35
2023/12/29 08:26:47;;;;;;;;;;;;;;;25.79;37.90;94437.19;4829776;29;9048;-35
2023/12/29 08:29:15;;;;;;;;;;;;;;;25.81;38.35;94442.19;4867223;29;8724;-40
2023/12/29 08:31:50;;;;;;;;;;;;;;;25.79;38.84;94439.19;4899456;29;7219;-40
2023/12/29 08:34:25;;;;;;;;;;;;;;;25.81;38.78;94440.19;4890693;29;7484;-39
2023/12/29 08:37:01;;;;;;;;;;;;;;;25.82;38.32;94438.91;4899084;29;9021;-39
2023/12/29 08:39:43;;;;;;;;;;;;;;;25.81;38.38;94437.44;4893124;29;7235;-38
2023/12/29 08:42:29;;;;;;;;;;;;;;;25.81;38.56;94440.19;4926238;28;7549;-39
2023/12/29 08:44:59;;;;;;;;;;;;;;;25.81;38.10;94439.44;4959338;28;9413;-39
2023/12/29 08:47:26;;;;;;;;;;;;;;;25.82;38.17;94438.16;4973584;28;7262;-38
2023/12/29 08:50:06;;;;;;;;;;;;;;;25.81;38.01;94437.44;4960558;28;7494;-38
2023/12/29 08:52:39;;;;;;;;;;;;;;;25.78;37.93;94441.19;4964874;28;7371;-39
2023/12/29 08:58:41;;;;;;;;;;;;;;;25.80;38.75;94435.16;4976444;28;7255;-39
2023/12/29 09:01:14;;;;;;;;;;;;;;;25.80;38.57;94441.44;4957514;28;7079;-39
2023/12/29 09:03:56;;;;;;;;;;;;;;;25.81;38.64;94445.69;4943252;28;7204;-39
2023/12/29 09:06:34;;;;;;;;;;;;;;;25.81;37.87;94445.69;4958036;28;6988;-39
2023/12/29 09:09:16;;;;;;;;;;;;;;;25.80;38.10;94451.69;4971864;28;7411;-39
2023/12/29 09:12:02;;;;;;;;;;;;;;;25.82;38.56;94455.44;4947798;28;9113;-39
2023/12/29 09:14:32;;;;;;;;;;;;;;;25.82;38.19;94460.97;4975101;28;9790;-39
2023/12/29 09:17:36;;;;;;;;;;;;;;;25.81;37.88;94453.97;4967323;28;7095;-39
2023/12/29 09:20:20;;;;;;;;;;;;;;;25.79;38.81;94450.97;4880150;29;7075;-39
2023/12/29 09:22:46;;;;;;;;;;;;;;;25.81;38.60;94453.22;4895808;29;7231;-39
2023/12/29 09:25:38;;;;;;;;;;;;;;;25.81;38.67;94453.97;4868402;29;7405;-39
2023/12/29 09:28:13;;;;;;;;;;;;;;;25.80;38.47;94452.47;4885281;29;7918;-39
2023/12/29 09:30:54;;;;;;;;;;;;;;;25.78;37.98;94454.22;4891495;29;8757;-39
2023/12/29 09:33:28;;;;;;;;;;;;;;;25.81;37.89;94450.47;4889471;29;7371;-38
2023/12/29 09:36:04;;;;;;;;;;;;;;;25.82;38.66;94449.94;4870640;29;9025;-39
2023/12/29 09:39:02;;;;;;;;;;;;;;;25.83;38.78;94450.69;4876494;29;7428;-38
2023/12/29 09:41:31;;;;;;;;;;;;;;;25.79;38.06;94448.22;4804073;29;9538;-39
2023/12/29 09:43:57;;;;;;;;;;;;;;;25.79;38.57;94453.72;4783073;30;9256;-39
2023/12/29 09:46:34;;;;;;;;;;;;;;;25.81;37.83;94453.22;4797551;29;7377;-38
2023/12/29 09:49:13;;;;;;;;;;;;;;;25.81;38.25;94456.72;4793794;29;7483;-46
2023/12/29 09:52:02;;;;;;;;;;;;;;;25.79;38.84;94450.97;4788662;29;7266;-48
2023/12/29 09:54:42;;;;;;;;;;;;;;;25.75;38.05;94447.72;4840189;29;9355;-48
2023/12/29 09:57:27;;;;;;;;;;;;;;;25.79;38.90;94455.72;4872262;29;7275;-50
2023/12/29 10:00:43;;;;;;;;;;;;;;;25.79;38.34;94452.97;4871211;29;9415;-48
2023/12/29 10:03:11;;;;;;;;;;;;;;;25.80;38.47;94448.94;4814248;29;6857;-50
2023/12/29 10:05:52;;;;;;;;;;;;;;;25.80;38.03;94459.97;4802927;29;9412;-50
2023/12/29 10:08:52;;;;;;;;;;;;;;;25.80;37.96;94454.47;4792464;29;7220;-49
2023/12/29 10:11:37;;;;;;;;;;;;;;;25.78;38.29;94448.72;4801158;29;7255;-48
2023/12/29 10:14:37;;;;;;;;;;;;;;;25.80;38.21;94443.44;4803246;29;9034;-49
2023/12/29 10:17:11;;;;;;;;;;;;;;;25.80;38.56;94438.69;4824011;29;9569;-46
2023/12/29 10:20:17;;;;;;;;;;;;;;;25.82;38.46;94443.66;4882518;29;9140;-52
2023/12/29 10:23:00;;;;;;;;;;;;;;;25.81;38.51;94448.47;4877251;29;9152;-50
2023/12/29 10:25:27;;;;;;;;;;;;;;;25.83;38.58;94436.91;4874910;29;6997;-46
2023/12/29 10:27:56;;;;;;;;;;;;;;;25.84;37.93;94438.41;4861566;29;8856;-46
2023/12/29 10:30:26;;;;;;;;;;;;;;;25.80;38.17;94435.16;4866593;29;7142;-47
2023/12/29 10:33:03;;;;;;;;;;;;;;;25.81;37.95;94434.69;4869140;29;9491;-49
2023/12/29 10:35:31;;;;;;;;;;;;;;;25.81;37.96;94426.41;4866229;29;9113;-46
2023/12/29 10:38:17;;;;;;;;;;;;;;;25.81;37.95;94426.41;4880786;29;8792;-46
2023/12/29 10:41:19;;;;;;;;;;;;;;;25.79;38.06;94428.94;4964934;28;7015;-46
2023/12/29 10:43:52;;;;;;;;;;;;;;;25.80;38.18;94422.16;4891320;29;8713;-46
2023/12/29 10:46:20;;;;;;;;;;;;;;;25.80;38.82;94419.41;4885698;29;7909;-47
2023/12/29 10:48:46;;;;;;;;;;;;;;;25.80;38.18;94411.13;4874638;29;9532;-46
2023/12/29 10:51:29;;;;;;;;;;;;;;;25.81;38.05;94417.41;4887658;29;7308;-46
2023/12/29 10:54:06;;;;;;;;;;;;;;;25.82;38.50;94408.59;4879745;29;7416;-46
2023/12/29 10:56:33;;;;;;;;;;;;;;;25.81;37.93;94401.63;4873370;29;7086;-46
2023/12/29 10:59:12;;;;;;;;;;;;;;;25.82;37.96;94399.59;4896947;29;7538;-37
2023/12/29 11:01:38;;;;;;;;;;;;;;;25.81;38.28;94393.34;4888117;29;7231;-36
2023/12/29 11:04:13;;;;;;;;;;;;;;;25.85;38.75;94404.09;4877700;29;9666;-36
2023/12/29 11:06:47;;;;;;;;;;;;;;;25.80;38.68;94394.59;4896847;29;7187;-37
2023/12/29 11:09:27;;;;;;;;;;;;;;;25.83;38.00;94390.84;4879613;29;9331;-36
2023/12/29 11:12:08;;;;;;;;;;;;;;;25.83;38.22;94396.34;4877164;29;9093;-37
2023/12/29 11:14:35;;;;;;;;;;;;;;;25.81;38.74;94384.34;4877780;29;7251;-37
2023/12/29 11:17:06;;;;;;;;;;;;;;;25.83;38.73;94382.56;4878829;29;7291;-37
2023/12/29 11:19:33;;;;;;;;;;;;;;;25.83;38.18;94374.28;4888549;28;7077;-37
2023/12/29 11:22:02;;;;;;;;;;;;;;;25.82;38.65;94369.28;4956050;28;7451;-37
2023/12/29 11:24:29;;;;;;;;;;;;;;;25.86;38.42;94372.53;4954189;28;7298;-37
2023/12/29 11:26:55;;;;;;;;;;;;;;;25.86;38.09;94372.53;4959948;28;7276;-37
2023/12/29 11:29:28;;;;;;;;;;;;;;;25.83;38.47;94360.53;4959444;28;9185;-37
2023/12/29 11:31:59;;;;;;;;;;;;;;;25.86;38.58;94353.25;4957928;28;9104;-37
2023/12/29 11:34:41;;;;;;;;;;;;;;;25.84;38.97;94359.25;4953479;28;8003;-37
2023/12/29 11:37:25;;;;;;;;;;;;;;;25.83;38.46;94351.50;4958715;28;9159;-37
2023/12/29 11:40:19;;;;;;;;;;;;;;;25.84;38.32;94358.50;4963673;28;8878;-37
2023/12/29 11:42:52;;;;;;;;;;;;;;;25.87;38.82;94354.72;4966598;28;9404;-36
2023/12/29 11:45:29;;;;;;;;;;;;;;;25.86;38.32;94356.72;4952289;28;7201;-36
2023/12/29 11:47:56;;;;;;;;;;;;;;;25.83;38.79;94357.75;4970185;28;6989;-37
2023/12/29 11:50:34;;;;;;;;;;;;;;;25.82;38.04;94356.25;4954312;28;7517;-37
2023/12/29 11:53:03;;;;;;;;;;;;;;;25.82;38.79;94359.00;4956356;28;7154;-37
2023/12/29 11:55:37;;;;;;;;;;;;;;;25.84;38.48;94348.22;4961637;28;7263;-37
2023/12/29 11:58:28;;;;;;;;;;;;;;;25.87;38.58;94352.72;4939373;29;7176;-37
2023/12/29 12:00:55;;;;;;;;;;;;;;;25.88;38.93;94345.94;4948406;28;7403;-37
2023/12/29 12:03:28;;;;;;;;;;;;;;;25.88;38.84;94340.41;4951985;28;8881;-37
2023/12/29 12:06:02;;;;;;;;;;;;;;;25.91;38.59;94339.41;4949783;28;7268;-37
2023/12/29 12:08:30;;;;;;;;;;;;;;;25.86;38.31;94334.69;4966082;28;7265;-37
2023/12/29 12:11:18;;;;;;;;;;;;;;;25.87;38.92;94325.16;4957907;28;6975;-39
2023/12/29 12:13:44;;;;;;;;;;;;;;;25.88;38.29;94320.41;4952039;28;7260;-39
2023/12/29 12:16:46;;;;;;;;;;;;;;;25.90;38.84;94329.63;4952436;28;9062;-39
2023/12/29 12:19:13;;;;;;;;;;;;;;;25.87;38.90;94330.69;4873241;29;6908;-39
2023/12/29 12:21:45;;;;;;;;;;;;;;;25.89;39.13;94332.91;4893318;29;7492;-39
2023/12/29 12:24:11;;;;;;;;;;;;;;;25.88;38.58;94326.66;4874773;29;8769;-39
2023/12/29 12:26:37;;;;;;;;;;;;;;;25.89;38.05;94325.41;4878433;29;9032;-38
2023/12/29 12:29:07;;;;;;;;;;;;;;;25.89;38.92;94327.41;4873231;29;7039;-40
2023/12/29 12:31:33;;;;;;;;;;;;;;;25.88;38.52;94323.88;4877410;29;7624;-38
2023/12/29 12:34:36;;;;;;;;;;;;;;;25.86;38.45;94315.41;4880266;29;9252;-39
2023/12/29 12:37:03;;;;;;;;;;;;;;;25.87;37.36;94311.38;4889508;29;7238;-39
2023/12/29 12:39:43;;;;;;;;;;;;;;;25.83;37.26;94297.16;4883540;29;9048;-39
2023/12/29 12:42:22;;;;;;;;;;;;;;;25.84;37.95;94300.63;4898398;29;9422;-41
2023/12/29 12:45:12;;;;;;;;;;;;;;;25.85;37.27;94299.38;4898384;29;9028;-39
2023/12/29 12:47:45;;;;;;;;;;;;;;;25.85;37.65;94300.13;4897322;29;7241;-39
2023/12/29 12:50:21;;;;;;;;;;;;;;;25.86;37.20;94298.84;4879490;29;7371;-40
2023/12/29 12:52:52;;;;;;;;;;;;;;;25.83;37.18;94288.88;4896558;29;8753;-40
2023/12/29 12:55:19;;;;;;;;;;;;;;;25.80;37.85;94286.41;4903925;28;7275;-39
2023/12/29 12:57:48;;;;;;;;;;;;;;;25.81;37.91;94282.38;4960035;28;9376;-39
2023/12/29 13:00:16;;;;;;;;;;;;;;;25.83;37.30;94288.88;4954907;28;8047;-39
2023/12/29 13:02:47;;;;;;;;;;;;;;;25.79;37.49;94282.91;4976861;28;9803;-39
2023/12/29 13:05:32;;;;;;;;;;;;;;;25.82;37.92;94281.88;4975327;28;7545;-40
2023/12/29 13:07:59;;;;;;;;;;;;;;;25.84;38.10;94287.59;4959376;28;7125;-39
2023/12/29 13:10:32;;;;;;;;;;;;;;;25.85;38.23;94278.09;4959098;28;6976;-39
2023/12/29 13:13:00;;;;;;;;;;;;;;;25.87;37.89;94280.31;4954025;28;7075;-38
2023/12/29 13:15:26;;;;;;;;;;;;;;;25.86;38.18;94282.31;4954264;28;6965;-39
2023/12/29 13:17:54;;;;;;;;;;;;;;;25.82;37.61;94281.88;4974625;28;7164;-39
2023/12/29 13:20:20;;;;;;;;;;;;;;;25.86;38.02;94276.09;4952288;28;9234;-36
2023/12/29 13:22:58;;;;;;;;;;;;;;;25.87;37.81;94281.06;4951665;28;9198;-36
2023/12/29 13:25:28;;;;;;;;;;;;;;;25.87;38.19;94280.31;4978420;28;8904;-36
2023/12/29 13:28:23;;;;;;;;;;;;;;;25.87;37.87;94289.34;4971756;28;7269;-36
2023/12/29 13:31:02;;;;;;;;;;;;;;;25.85;37.92;94272.59;4861551;29;8808;-36
2023/12/29 13:33:44;;;;;;;;;;;;;;;25.89;38.03;94281.31;4871365;29;8418;-35
2023/12/29 13:36:48;;;;;;;;;;;;;;;25.89;38.00;94278.56;4850163;29;7257;-36
2023/12/29 13:39:31;;;;;;;;;;;;;;;25.89;38.40;94278.56;4792287;29;7372;-36
2023/12/29 13:42:00;;;;;;;;;;;;;;;25.88;37.52;94277.03;4780861;29;7873;-36
2023/12/29 13:44:31;;;;;;;;;;;;;;;25.87;38.21;94280.31;4787366;29;8816;-36